sensor_id;sensor_type;location;lat;lon;timestamp;P1;durP1;ratioP1;P2;durP2;ratioP2
37449;SDS011;23309;52.582;13.406;2022-11-03T00:00:08;9.27;;;3.37;;
37449;SDS011;23309;52.582;13.406;2022-11-03T00:02:35;8.00;;;3.37;;
37449;SDS011;23309;52.582;13.406;2022-11-03T00:05:02;7.70;;;3.10;;
37449;SDS011;23309;52.582;13.406;2022-11-03T00:07:32;4.47;;;2.93;;
37449;SDS011;23309;52.582;13.406;2022-11-03T00:09:58;4.87;;;3.20;;
37449;SDS011;23309;52.582;13.406;2022-11-03T00:12:24;12.60;;;3.63;;
37449;SDS011;23309;52.582;13.406;2022-11-03T00:14:50;7.77;;;3.53;;
37449;SDS011;23309;52.582;13.406;2022-11-03T00:17:16;8.43;;;3.17;;
37449;SDS011;23309;52.582;13.406;2022-11-03T00:19:42;5.17;;;3.20;;
37449;SDS011;23309;52.582;13.406;2022-11-03T00:22:08;5.73;;;3.07;;
37449;SDS011;23309;52.582;13.406;2022-11-03T00:24:37;7.47;;;3.80;;
37449;SDS011;23309;52.582;13.406;2022-11-03T00:27:03;8.50;;;3.23;;
37449;SDS011;23309;52.582;13.406;2022-11-03T00:29:29;6.83;;;3.50;;
37449;SDS011;23309;52.582;13.406;2022-11-03T00:31:55;7.97;;;3.50;;
37449;SDS011;23309;52.582;13.406;2022-11-03T00:34:21;5.60;;;3.40;;
37449;SDS011;23309;52.582;13.406;2022-11-03T00:36:48;8.80;;;3.80;;
37449;SDS011;23309;52.582;13.406;2022-11-03T00:39:14;10.03;;;3.60;;
37449;SDS011;23309;52.582;13.406;2022-11-03T00:41:42;5.00;;;3.50;;
37449;SDS011;23309;52.582;13.406;2022-11-03T00:44:09;7.03;;;4.03;;
37449;SDS011;23309;52.582;13.406;2022-11-03T00:46:35;6.80;;;3.73;;
37449;SDS011;23309;52.582;13.406;2022-11-03T00:49:01;5.50;;;3.67;;
37449;SDS011;23309;52.582;13.406;2022-11-03T00:51:28;15.83;;;3.63;;
37449;SDS011;23309;52.582;13.406;2022-11-03T00:53:55;9.90;;;3.80;;
37449;SDS011;23309;52.582;13.406;2022-11-03T00:56:24;8.57;;;4.10;;
37449;SDS011;23309;52.582;13.406;2022-11-03T00:58:54;4.50;;;3.63;;
37449;SDS011;23309;52.582;13.406;2022-11-03T01:01:23;9.40;;;4.03;;
37449;SDS011;23309;52.582;13.406;2022-11-03T01:03:54;6.43;;;3.73;;
37449;SDS011;23309;52.582;13.406;2022-11-03T01:06:22;7.37;;;3.97;;
37449;SDS011;23309;52.582;13.406;2022-11-03T01:08:48;7.53;;;3.87;;
37449;SDS011;23309;52.582;13.406;2022-11-03T01:11:15;10.47;;;3.90;;
37449;SDS011;23309;52.582;13.406;2022-11-03T01:13:43;16.77;;;4.37;;
37449;SDS011;23309;52.582;13.406;2022-11-03T01:16:13;7.80;;;4.03;;
37449;SDS011;23309;52.582;13.406;2022-11-03T01:18:39;14.30;;;4.57;;
37449;SDS011;23309;52.582;13.406;2022-11-03T01:21:06;9.70;;;3.97;;
37449;SDS011;23309;52.582;13.406;2022-11-03T01:23:33;6.90;;;3.63;;
37449;SDS011;23309;52.582;13.406;2022-11-03T01:26:02;9.73;;;3.93;;
37449;SDS011;23309;52.582;13.406;2022-11-03T01:28:29;9.37;;;4.03;;
37449;SDS011;23309;52.582;13.406;2022-11-03T01:30:55;8.53;;;4.03;;
37449;SDS011;23309;52.582;13.406;2022-11-03T01:33:29;5.23;;;3.50;;
37449;SDS011;23309;52.582;13.406;2022-11-03T01:35:55;6.10;;;3.67;;
37449;SDS011;23309;52.582;13.406;2022-11-03T01:38:22;7.83;;;4.13;;
37449;SDS011;23309;52.582;13.406;2022-11-03T01:40:48;10.87;;;4.60;;
37449;SDS011;23309;52.582;13.406;2022-11-03T01:43:14;8.60;;;4.47;;
37449;SDS011;23309;52.582;13.406;2022-11-03T01:45:41;8.60;;;4.20;;
37449;SDS011;23309;52.582;13.406;2022-11-03T01:48:08;8.10;;;4.13;;
37449;SDS011;23309;52.582;13.406;2022-11-03T01:50:38;5.37;;;3.67;;
37449;SDS011;23309;52.582;13.406;2022-11-03T01:53:08;6.03;;;3.40;;
37449;SDS011;23309;52.582;13.406;2022-11-03T01:55:35;5.50;;;3.40;;
37449;SDS011;23309;52.582;13.406;2022-11-03T01:58:03;5.23;;;3.33;;
37449;SDS011;23309;52.582;13.406;2022-11-03T02:00:34;10.53;;;4.10;;
37449;SDS011;23309;52.582;13.406;2022-11-03T02:03:01;6.93;;;3.40;;
37449;SDS011;23309;52.582;13.406;2022-11-03T02:05:28;8.93;;;4.17;;
37449;SDS011;23309;52.582;13.406;2022-11-03T02:07:57;5.20;;;3.63;;
37449;SDS011;23309;52.582;13.406;2022-11-03T02:10:29;8.77;;;3.70;;
37449;SDS011;23309;52.582;13.406;2022-11-03T02:12:56;9.23;;;4.27;;
37449;SDS011;23309;52.582;13.406;2022-11-03T02:15:22;5.73;;;3.13;;
37449;SDS011;23309;52.582;13.406;2022-11-03T02:17:50;7.47;;;3.83;;
37449;SDS011;23309;52.582;13.406;2022-11-03T02:20:18;11.00;;;4.60;;
37449;SDS011;23309;52.582;13.406;2022-11-03T02:22:58;6.13;;;3.30;;
37449;SDS011;23309;52.582;13.406;2022-11-03T02:25:50;8.80;;;3.37;;
37449;SDS011;23309;52.582;13.406;2022-11-03T02:28:17;15.20;;;3.10;;
37449;SDS011;23309;52.582;13.406;2022-11-03T02:30:49;5.43;;;2.80;;
37449;SDS011;23309;52.582;13.406;2022-11-03T02:33:28;12.03;;;4.17;;
37449;SDS011;23309;52.582;13.406;2022-11-03T02:36:07;9.10;;;3.27;;
37449;SDS011;23309;52.582;13.406;2022-11-03T02:38:42;9.77;;;3.10;;
37449;SDS011;23309;52.582;13.406;2022-11-03T02:41:16;7.03;;;3.00;;
37449;SDS011;23309;52.582;13.406;2022-11-03T02:43:44;8.20;;;3.57;;
37449;SDS011;23309;52.582;13.406;2022-11-03T02:46:12;5.03;;;2.40;;
37449;SDS011;23309;52.582;13.406;2022-11-03T02:48:41;6.27;;;2.90;;
37449;SDS011;23309;52.582;13.406;2022-11-03T02:51:07;6.10;;;3.00;;
37449;SDS011;23309;52.582;13.406;2022-11-03T02:53:35;9.40;;;2.53;;
37449;SDS011;23309;52.582;13.406;2022-11-03T02:56:08;7.10;;;3.17;;
37449;SDS011;23309;52.582;13.406;2022-11-03T02:58:41;7.63;;;3.00;;
37449;SDS011;23309;52.582;13.406;2022-11-03T03:01:15;7.03;;;2.50;;
37449;SDS011;23309;52.582;13.406;2022-11-03T03:03:49;7.40;;;2.70;;
37449;SDS011;23309;52.582;13.406;2022-11-03T03:06:22;6.27;;;2.60;;
37449;SDS011;23309;52.582;13.406;2022-11-03T03:08:52;6.00;;;2.60;;
37449;SDS011;23309;52.582;13.406;2022-11-03T03:11:22;4.67;;;2.70;;
37449;SDS011;23309;52.582;13.406;2022-11-03T03:13:50;7.37;;;2.70;;
37449;SDS011;23309;52.582;13.406;2022-11-03T03:16:18;11.70;;;3.00;;
37449;SDS011;23309;52.582;13.406;2022-11-03T03:18:52;9.20;;;3.10;;
37449;SDS011;23309;52.582;13.406;2022-11-03T03:21:31;6.00;;;2.53;;
37449;SDS011;23309;52.582;13.406;2022-11-03T03:24:05;5.27;;;2.63;;
37449;SDS011;23309;52.582;13.406;2022-11-03T03:26:40;12.93;;;3.53;;
37449;SDS011;23309;52.582;13.406;2022-11-03T03:29:14;6.13;;;2.60;;
37449;SDS011;23309;52.582;13.406;2022-11-03T03:31:45;6.33;;;2.70;;
37449;SDS011;23309;52.582;13.406;2022-11-03T03:34:17;7.77;;;2.90;;
37449;SDS011;23309;52.582;13.406;2022-11-03T03:36:46;7.03;;;2.53;;
37449;SDS011;23309;52.582;13.406;2022-11-03T03:39:15;6.70;;;2.40;;
37449;SDS011;23309;52.582;13.406;2022-11-03T03:41:45;13.10;;;2.70;;
37449;SDS011;23309;52.582;13.406;2022-11-03T03:44:15;6.30;;;3.00;;
37449;SDS011;23309;52.582;13.406;2022-11-03T03:46:43;7.70;;;2.57;;
37449;SDS011;23309;52.582;13.406;2022-11-03T03:49:15;8.10;;;2.77;;
37449;SDS011;23309;52.582;13.406;2022-11-03T03:51:41;8.23;;;3.00;;
37449;SDS011;23309;52.582;13.406;2022-11-03T03:54:08;8.97;;;3.13;;
37449;SDS011;23309;52.582;13.406;2022-11-03T03:56:35;5.53;;;2.60;;
37449;SDS011;23309;52.582;13.406;2022-11-03T03:59:05;15.60;;;3.00;;
37449;SDS011;23309;52.582;13.406;2022-11-03T04:01:34;6.37;;;2.80;;
37449;SDS011;23309;52.582;13.406;2022-11-03T04:04:00;9.37;;;2.93;;
37449;SDS011;23309;52.582;13.406;2022-11-03T04:06:26;7.00;;;2.87;;
37449;SDS011;23309;52.582;13.406;2022-11-03T04:08:52;9.90;;;2.80;;
37449;SDS011;23309;52.582;13.406;2022-11-03T04:11:19;8.27;;;2.60;;
37449;SDS011;23309;52.582;13.406;2022-11-03T04:13:45;6.43;;;2.60;;
37449;SDS011;23309;52.582;13.406;2022-11-03T04:16:11;4.90;;;2.60;;
37449;SDS011;23309;52.582;13.406;2022-11-03T04:18:40;9.87;;;2.73;;
37449;SDS011;23309;52.582;13.406;2022-11-03T04:21:07;4.40;;;2.40;;
37449;SDS011;23309;52.582;13.406;2022-11-03T04:23:37;5.57;;;2.60;;
37449;SDS011;23309;52.582;13.406;2022-11-03T04:26:03;7.30;;;2.53;;
37449;SDS011;23309;52.582;13.406;2022-11-03T04:28:36;9.20;;;3.50;;
37449;SDS011;23309;52.582;13.406;2022-11-03T04:31:05;5.63;;;2.73;;
37449;SDS011;23309;52.582;13.406;2022-11-03T04:33:34;6.03;;;2.47;;
37449;SDS011;23309;52.582;13.406;2022-11-03T04:36:07;5.67;;;2.33;;
37449;SDS011;23309;52.582;13.406;2022-11-03T04:38:43;5.53;;;2.30;;
37449;SDS011;23309;52.582;13.406;2022-11-03T04:41:12;4.80;;;2.57;;
37449;SDS011;23309;52.582;13.406;2022-11-03T04:43:41;8.80;;;2.60;;
37449;SDS011;23309;52.582;13.406;2022-11-03T04:46:09;9.60;;;3.20;;
37449;SDS011;23309;52.582;13.406;2022-11-03T04:48:37;7.53;;;3.30;;
37449;SDS011;23309;52.582;13.406;2022-11-03T04:51:09;6.93;;;3.10;;
37449;SDS011;23309;52.582;13.406;2022-11-03T04:53:39;5.07;;;2.93;;
37449;SDS011;23309;52.582;13.406;2022-11-03T04:56:14;10.40;;;2.97;;
37449;SDS011;23309;52.582;13.406;2022-11-03T04:58:45;4.73;;;2.83;;
37449;SDS011;23309;52.582;13.406;2022-11-03T05:01:11;4.77;;;2.53;;
37449;SDS011;23309;52.582;13.406;2022-11-03T05:03:40;6.07;;;2.80;;
37449;SDS011;23309;52.582;13.406;2022-11-03T05:06:12;7.57;;;3.63;;
37449;SDS011;23309;52.582;13.406;2022-11-03T05:08:41;7.07;;;3.03;;
37449;SDS011;23309;52.582;13.406;2022-11-03T05:11:11;15.97;;;4.27;;
37449;SDS011;23309;52.582;13.406;2022-11-03T05:13:43;7.97;;;3.23;;
37449;SDS011;23309;52.582;13.406;2022-11-03T05:16:10;6.83;;;3.33;;
37449;SDS011;23309;52.582;13.406;2022-11-03T05:18:36;6.37;;;3.40;;
37449;SDS011;23309;52.582;13.406;2022-11-03T05:21:07;11.23;;;3.20;;
37449;SDS011;23309;52.582;13.406;2022-11-03T05:23:40;10.23;;;3.50;;
37449;SDS011;23309;52.582;13.406;2022-11-03T05:26:10;4.87;;;2.60;;
37449;SDS011;23309;52.582;13.406;2022-11-03T05:28:42;8.37;;;3.23;;
37449;SDS011;23309;52.582;13.406;2022-11-03T05:31:19;9.33;;;3.17;;
37449;SDS011;23309;52.582;13.406;2022-11-03T05:33:48;6.20;;;3.70;;
37449;SDS011;23309;52.582;13.406;2022-11-03T05:36:21;7.30;;;3.60;;
37449;SDS011;23309;52.582;13.406;2022-11-03T05:38:49;8.13;;;3.53;;
37449;SDS011;23309;52.582;13.406;2022-11-03T05:41:19;5.23;;;3.47;;
37449;SDS011;23309;52.582;13.406;2022-11-03T05:43:53;13.43;;;3.53;;
37449;SDS011;23309;52.582;13.406;2022-11-03T05:46:23;5.07;;;3.60;;
37449;SDS011;23309;52.582;13.406;2022-11-03T05:48:55;6.30;;;3.10;;
37449;SDS011;23309;52.582;13.406;2022-11-03T05:51:26;8.10;;;2.90;;
37449;SDS011;23309;52.582;13.406;2022-11-03T05:53:58;7.50;;;2.93;;
37449;SDS011;23309;52.582;13.406;2022-11-03T05:56:27;10.67;;;3.40;;
37449;SDS011;23309;52.582;13.406;2022-11-03T05:58:57;9.97;;;3.40;;
37449;SDS011;23309;52.582;13.406;2022-11-03T06:01:25;12.60;;;3.17;;
37449;SDS011;23309;52.582;13.406;2022-11-03T06:03:55;10.67;;;3.40;;
37449;SDS011;23309;52.582;13.406;2022-11-03T06:06:27;4.80;;;2.63;;
37449;SDS011;23309;52.582;13.406;2022-11-03T06:08:59;9.23;;;3.10;;
37449;SDS011;23309;52.582;13.406;2022-11-03T06:11:30;12.03;;;3.57;;
37449;SDS011;23309;52.582;13.406;2022-11-03T06:14:00;10.83;;;3.00;;
37449;SDS011;23309;52.582;13.406;2022-11-03T06:16:39;6.60;;;3.03;;
37449;SDS011;23309;52.582;13.406;2022-11-03T06:19:14;7.10;;;3.07;;
37449;SDS011;23309;52.582;13.406;2022-11-03T06:21:50;8.93;;;2.70;;
37449;SDS011;23309;52.582;13.406;2022-11-03T06:24:19;10.80;;;3.10;;
37449;SDS011;23309;52.582;13.406;2022-11-03T06:26:49;5.93;;;3.00;;
37449;SDS011;23309;52.582;13.406;2022-11-03T06:29:17;11.13;;;3.40;;
37449;SDS011;23309;52.582;13.406;2022-11-03T06:31:45;8.00;;;3.00;;
37449;SDS011;23309;52.582;13.406;2022-11-03T06:34:20;8.57;;;2.80;;
37449;SDS011;23309;52.582;13.406;2022-11-03T06:37:09;12.83;;;3.57;;
37449;SDS011;23309;52.582;13.406;2022-11-03T06:39:44;16.97;;;4.20;;
37449;SDS011;23309;52.582;13.406;2022-11-03T06:42:11;8.70;;;2.97;;
37449;SDS011;23309;52.582;13.406;2022-11-03T06:44:39;15.63;;;3.47;;
37449;SDS011;23309;52.582;13.406;2022-11-03T06:47:13;6.07;;;3.00;;
37449;SDS011;23309;52.582;13.406;2022-11-03T06:49:48;7.77;;;3.90;;
37449;SDS011;23309;52.582;13.406;2022-11-03T06:52:22;9.77;;;3.43;;
37449;SDS011;23309;52.582;13.406;2022-11-03T06:55:00;7.90;;;3.20;;
37449;SDS011;23309;52.582;13.406;2022-11-03T06:57:50;7.60;;;3.20;;
37449;SDS011;23309;52.582;13.406;2022-11-03T07:00:20;8.70;;;3.70;;
37449;SDS011;23309;52.582;13.406;2022-11-03T07:02:51;6.97;;;3.27;;
37449;SDS011;23309;52.582;13.406;2022-11-03T07:05:27;11.57;;;3.67;;
37449;SDS011;23309;52.582;13.406;2022-11-03T07:07:58;14.60;;;3.87;;
37449;SDS011;23309;52.582;13.406;2022-11-03T07:10:27;11.10;;;3.70;;
37449;SDS011;23309;52.582;13.406;2022-11-03T07:12:58;6.63;;;2.97;;
37449;SDS011;23309;52.582;13.406;2022-11-03T07:15:30;5.40;;;2.77;;
37449;SDS011;23309;52.582;13.406;2022-11-03T07:17:59;14.93;;;3.30;;
37449;SDS011;23309;52.582;13.406;2022-11-03T07:20:27;7.70;;;3.13;;
37449;SDS011;23309;52.582;13.406;2022-11-03T07:22:53;8.00;;;3.33;;
37449;SDS011;23309;52.582;13.406;2022-11-03T07:25:24;7.23;;;3.40;;
37449;SDS011;23309;52.582;13.406;2022-11-03T07:27:51;10.33;;;3.40;;
37449;SDS011;23309;52.582;13.406;2022-11-03T07:30:20;7.83;;;3.30;;
37449;SDS011;23309;52.582;13.406;2022-11-03T07:32:53;9.83;;;3.37;;
37449;SDS011;23309;52.582;13.406;2022-11-03T07:35:27;11.93;;;3.50;;
37449;SDS011;23309;52.582;13.406;2022-11-03T07:37:59;6.30;;;2.87;;
37449;SDS011;23309;52.582;13.406;2022-11-03T07:40:27;8.50;;;3.70;;
37449;SDS011;23309;52.582;13.406;2022-11-03T07:42:58;8.93;;;2.80;;
37449;SDS011;23309;52.582;13.406;2022-11-03T07:45:35;13.23;;;3.47;;
37449;SDS011;23309;52.582;13.406;2022-11-03T07:48:20;10.67;;;3.60;;
37449;SDS011;23309;52.582;13.406;2022-11-03T07:50:48;12.57;;;3.10;;
37449;SDS011;23309;52.582;13.406;2022-11-03T07:53:23;8.70;;;3.37;;
37449;SDS011;23309;52.582;13.406;2022-11-03T07:55:58;13.40;;;3.90;;
37449;SDS011;23309;52.582;13.406;2022-11-03T07:58:32;7.20;;;3.07;;
37449;SDS011;23309;52.582;13.406;2022-11-03T08:01:03;9.27;;;3.97;;
37449;SDS011;23309;52.582;13.406;2022-11-03T08:03:47;10.77;;;3.27;;
37449;SDS011;23309;52.582;13.406;2022-11-03T08:06:13;11.47;;;3.70;;
37449;SDS011;23309;52.582;13.406;2022-11-03T08:08:42;6.47;;;3.10;;
37449;SDS011;23309;52.582;13.406;2022-11-03T08:11:08;13.47;;;3.50;;
37449;SDS011;23309;52.582;13.406;2022-11-03T08:13:34;12.00;;;3.37;;
37449;SDS011;23309;52.582;13.406;2022-11-03T08:16:01;7.53;;;3.53;;
37449;SDS011;23309;52.582;13.406;2022-11-03T08:18:27;16.37;;;3.80;;
37449;SDS011;23309;52.582;13.406;2022-11-03T08:20:53;16.57;;;3.53;;
37449;SDS011;23309;52.582;13.406;2022-11-03T08:23:19;13.40;;;3.20;;
37449;SDS011;23309;52.582;13.406;2022-11-03T08:25:48;12.27;;;4.40;;
37449;SDS011;23309;52.582;13.406;2022-11-03T08:28:14;14.40;;;3.30;;
37449;SDS011;23309;52.582;13.406;2022-11-03T08:30:40;14.40;;;3.60;;
37449;SDS011;23309;52.582;13.406;2022-11-03T08:33:07;14.00;;;3.60;;
37449;SDS011;23309;52.582;13.406;2022-11-03T08:35:33;14.10;;;3.40;;
37449;SDS011;23309;52.582;13.406;2022-11-03T08:37:59;12.60;;;3.50;;
37449;SDS011;23309;52.582;13.406;2022-11-03T08:40:25;7.60;;;3.37;;
37449;SDS011;23309;52.582;13.406;2022-11-03T08:42:54;6.63;;;3.10;;
37449;SDS011;23309;52.582;13.406;2022-11-03T08:45:20;6.23;;;3.47;;
37449;SDS011;23309;52.582;13.406;2022-11-03T08:47:46;11.77;;;3.33;;
37449;SDS011;23309;52.582;13.406;2022-11-03T08:50:12;9.00;;;3.37;;
37449;SDS011;23309;52.582;13.406;2022-11-03T08:52:39;11.07;;;3.47;;
37449;SDS011;23309;52.582;13.406;2022-11-03T08:55:05;16.53;;;3.60;;
37449;SDS011;23309;52.582;13.406;2022-11-03T08:57:33;6.53;;;3.07;;
37449;SDS011;23309;52.582;13.406;2022-11-03T09:00:01;11.90;;;3.03;;
37449;SDS011;23309;52.582;13.406;2022-11-03T09:02:29;6.87;;;2.70;;
37449;SDS011;23309;52.582;13.406;2022-11-03T09:04:56;15.00;;;3.13;;
37449;SDS011;23309;52.582;13.406;2022-11-03T09:07:22;7.30;;;2.90;;
37449;SDS011;23309;52.582;13.406;2022-11-03T09:09:48;13.53;;;3.13;;
37449;SDS011;23309;52.582;13.406;2022-11-03T09:12:14;8.20;;;2.90;;
37449;SDS011;23309;52.582;13.406;2022-11-03T09:14:40;10.27;;;3.10;;
37449;SDS011;23309;52.582;13.406;2022-11-03T09:17:09;6.67;;;2.90;;
37449;SDS011;23309;52.582;13.406;2022-11-03T09:19:35;7.43;;;2.63;;
37449;SDS011;23309;52.582;13.406;2022-11-03T09:22:02;12.20;;;3.43;;
37449;SDS011;23309;52.582;13.406;2022-11-03T09:24:28;7.40;;;3.23;;
37449;SDS011;23309;52.582;13.406;2022-11-03T09:26:54;5.60;;;2.70;;
37449;SDS011;23309;52.582;13.406;2022-11-03T09:29:20;5.00;;;2.67;;
37449;SDS011;23309;52.582;13.406;2022-11-03T09:31:46;4.90;;;2.70;;
37449;SDS011;23309;52.582;13.406;2022-11-03T09:34:15;6.93;;;2.70;;
37449;SDS011;23309;52.582;13.406;2022-11-03T09:36:41;8.60;;;3.43;;
37449;SDS011;23309;52.582;13.406;2022-11-03T09:39:07;7.43;;;2.70;;
37449;SDS011;23309;52.582;13.406;2022-11-03T09:41:34;10.07;;;2.90;;
37449;SDS011;23309;52.582;13.406;2022-11-03T09:44:00;5.97;;;2.60;;
37449;SDS011;23309;52.582;13.406;2022-11-03T09:46:27;7.63;;;2.60;;
37449;SDS011;23309;52.582;13.406;2022-11-03T09:48:54;8.53;;;3.10;;
37449;SDS011;23309;52.582;13.406;2022-11-03T09:51:23;6.13;;;2.60;;
37449;SDS011;23309;52.582;13.406;2022-11-03T09:53:51;12.70;;;3.00;;
37449;SDS011;23309;52.582;13.406;2022-11-03T09:56:18;5.90;;;2.23;;
37449;SDS011;23309;52.582;13.406;2022-11-03T09:58:49;8.20;;;3.03;;
37449;SDS011;23309;52.582;13.406;2022-11-03T10:01:15;13.50;;;2.97;;
37449;SDS011;23309;52.582;13.406;2022-11-03T10:03:41;9.57;;;2.97;;
37449;SDS011;23309;52.582;13.406;2022-11-03T10:06:08;7.40;;;3.07;;
37449;SDS011;23309;52.582;13.406;2022-11-03T10:08:37;5.60;;;3.37;;
37449;SDS011;23309;52.582;13.406;2022-11-03T10:11:04;10.23;;;3.03;;
37449;SDS011;23309;52.582;13.406;2022-11-03T10:13:33;9.17;;;2.70;;
37449;SDS011;23309;52.582;13.406;2022-11-03T10:16:04;6.00;;;2.73;;
37449;SDS011;23309;52.582;13.406;2022-11-03T10:18:33;6.53;;;2.33;;
37449;SDS011;23309;52.582;13.406;2022-11-03T10:21:02;8.40;;;3.03;;
37449;SDS011;23309;52.582;13.406;2022-11-03T10:23:30;8.93;;;2.80;;
37449;SDS011;23309;52.582;13.406;2022-11-03T10:26:02;7.70;;;2.70;;
37449;SDS011;23309;52.582;13.406;2022-11-03T10:28:34;8.23;;;2.87;;
37449;SDS011;23309;52.582;13.406;2022-11-03T10:31:01;3.93;;;2.17;;
37449;SDS011;23309;52.582;13.406;2022-11-03T10:33:30;4.40;;;2.30;;
37449;SDS011;23309;52.582;13.406;2022-11-03T10:35:58;7.70;;;2.60;;
37449;SDS011;23309;52.582;13.406;2022-11-03T10:38:26;11.50;;;2.83;;
37449;SDS011;23309;52.582;13.406;2022-11-03T10:40:55;9.80;;;2.80;;
37449;SDS011;23309;52.582;13.406;2022-11-03T10:43:37;6.77;;;3.10;;
37449;SDS011;23309;52.582;13.406;2022-11-03T10:46:08;4.77;;;2.90;;
37449;SDS011;23309;52.582;13.406;2022-11-03T10:48:42;13.50;;;6.30;;
37449;SDS011;23309;52.582;13.406;2022-11-03T10:51:09;16.53;;;8.70;;
37449;SDS011;23309;52.582;13.406;2022-11-03T10:53:37;8.20;;;3.07;;
37449;SDS011;23309;52.582;13.406;2022-11-03T10:56:05;5.77;;;2.60;;
37449;SDS011;23309;52.582;13.406;2022-11-03T10:58:34;9.33;;;2.80;;
37449;SDS011;23309;52.582;13.406;2022-11-03T11:01:00;6.83;;;3.13;;
37449;SDS011;23309;52.582;13.406;2022-11-03T11:03:27;6.70;;;3.20;;
37449;SDS011;23309;52.582;13.406;2022-11-03T11:05:53;7.63;;;2.60;;
37449;SDS011;23309;52.582;13.406;2022-11-03T11:08:21;6.50;;;2.60;;
37449;SDS011;23309;52.582;13.406;2022-11-03T11:10:48;8.63;;;3.70;;
37449;SDS011;23309;52.582;13.406;2022-11-03T11:13:24;9.90;;;2.90;;
37449;SDS011;23309;52.582;13.406;2022-11-03T11:15:54;8.10;;;2.37;;
37449;SDS011;23309;52.582;13.406;2022-11-03T11:39:58;6.43;;;2.57;;
37449;SDS011;23309;52.582;13.406;2022-11-03T11:42:24;11.03;;;3.27;;
37449;SDS011;23309;52.582;13.406;2022-11-03T11:45:00;7.87;;;2.70;;
37449;SDS011;23309;52.582;13.406;2022-11-03T11:50:29;8.70;;;2.97;;
37449;SDS011;23309;52.582;13.406;2022-11-03T11:53:03;9.77;;;2.80;;
37449;SDS011;23309;52.582;13.406;2022-11-03T11:55:46;8.10;;;2.40;;
37449;SDS011;23309;52.582;13.406;2022-11-03T11:58:17;9.80;;;2.50;;
37449;SDS011;23309;52.582;13.406;2022-11-03T12:00:58;5.30;;;2.20;;
37449;SDS011;23309;52.582;13.406;2022-11-03T12:03:32;6.00;;;2.57;;
37449;SDS011;23309;52.582;13.406;2022-11-03T12:06:02;5.93;;;2.57;;
37449;SDS011;23309;52.582;13.406;2022-11-03T12:08:29;4.33;;;2.07;;
37449;SDS011;23309;52.582;13.406;2022-11-03T12:10:57;5.90;;;2.07;;
37449;SDS011;23309;52.582;13.406;2022-11-03T12:16:26;18.07;;;3.00;;
37449;SDS011;23309;52.582;13.406;2022-11-03T12:18:56;3.70;;;2.37;;
37449;SDS011;23309;52.582;13.406;2022-11-03T12:21:52;8.40;;;2.70;;
37449;SDS011;23309;52.582;13.406;2022-11-03T12:24:26;5.30;;;2.70;;
37449;SDS011;23309;52.582;13.406;2022-11-03T12:27:37;7.30;;;2.30;;
37449;SDS011;23309;52.582;13.406;2022-11-03T12:30:11;7.63;;;2.27;;
37449;SDS011;23309;52.582;13.406;2022-11-03T12:32:42;12.00;;;2.50;;
37449;SDS011;23309;52.582;13.406;2022-11-03T12:35:12;7.63;;;2.37;;
37449;SDS011;23309;52.582;13.406;2022-11-03T12:37:38;7.10;;;2.60;;
37449;SDS011;23309;52.582;13.406;2022-11-03T12:40:05;4.93;;;2.07;;
37449;SDS011;23309;52.582;13.406;2022-11-03T12:42:33;8.03;;;2.30;;
37449;SDS011;23309;52.582;13.406;2022-11-03T12:44:59;7.50;;;2.30;;
37449;SDS011;23309;52.582;13.406;2022-11-03T12:47:25;8.73;;;2.30;;
37449;SDS011;23309;52.582;13.406;2022-11-03T12:49:52;13.40;;;2.50;;
37449;SDS011;23309;52.582;13.406;2022-11-03T12:52:20;8.90;;;2.27;;
37449;SDS011;23309;52.582;13.406;2022-11-03T12:54:46;6.83;;;2.33;;
37449;SDS011;23309;52.582;13.406;2022-11-03T12:57:12;4.53;;;2.30;;
37449;SDS011;23309;52.582;13.406;2022-11-03T12:59:39;8.20;;;2.37;;
37449;SDS011;23309;52.582;13.406;2022-11-03T13:02:05;11.73;;;2.80;;
37449;SDS011;23309;52.582;13.406;2022-11-03T13:04:34;5.70;;;2.63;;
37449;SDS011;23309;52.582;13.406;2022-11-03T13:07:02;6.30;;;2.37;;
37449;SDS011;23309;52.582;13.406;2022-11-03T13:09:31;7.30;;;2.40;;
37449;SDS011;23309;52.582;13.406;2022-11-03T13:11:57;6.40;;;2.30;;
37449;SDS011;23309;52.582;13.406;2022-11-03T13:14:24;6.80;;;2.87;;
37449;SDS011;23309;52.582;13.406;2022-11-03T13:16:50;6.70;;;2.53;;
37449;SDS011;23309;52.582;13.406;2022-11-03T13:19:16;5.17;;;2.13;;
37449;SDS011;23309;52.582;13.406;2022-11-03T13:21:42;7.37;;;2.50;;
37449;SDS011;23309;52.582;13.406;2022-11-03T13:24:08;4.97;;;2.03;;
37449;SDS011;23309;52.582;13.406;2022-11-03T13:26:37;5.17;;;2.60;;
37449;SDS011;23309;52.582;13.406;2022-11-03T13:29:03;6.93;;;2.60;;
37449;SDS011;23309;52.582;13.406;2022-11-03T13:31:29;10.13;;;2.80;;
37449;SDS011;23309;52.582;13.406;2022-11-03T13:33:55;6.87;;;2.40;;
37449;SDS011;23309;52.582;13.406;2022-11-03T13:36:22;14.17;;;2.57;;
37449;SDS011;23309;52.582;13.406;2022-11-03T13:38:48;7.00;;;2.50;;
37449;SDS011;23309;52.582;13.406;2022-11-03T13:41:14;6.50;;;2.20;;
37449;SDS011;23309;52.582;13.406;2022-11-03T13:43:42;11.03;;;2.70;;
37449;SDS011;23309;52.582;13.406;2022-11-03T13:46:09;6.50;;;2.53;;
37449;SDS011;23309;52.582;13.406;2022-11-03T13:48:35;7.70;;;2.53;;
37449;SDS011;23309;52.582;13.406;2022-11-03T13:51:01;6.30;;;2.40;;
37449;SDS011;23309;52.582;13.406;2022-11-03T13:53:27;7.67;;;2.40;;
37449;SDS011;23309;52.582;13.406;2022-11-03T13:55:53;6.83;;;2.63;;
37449;SDS011;23309;52.582;13.406;2022-11-03T13:58:19;6.00;;;2.30;;
37449;SDS011;23309;52.582;13.406;2022-11-03T14:00:48;8.40;;;2.50;;
37449;SDS011;23309;52.582;13.406;2022-11-03T14:03:14;9.00;;;2.63;;
37449;SDS011;23309;52.582;13.406;2022-11-03T14:05:40;5.80;;;2.20;;
37449;SDS011;23309;52.582;13.406;2022-11-03T14:08:06;6.60;;;2.43;;
37449;SDS011;23309;52.582;13.406;2022-11-03T14:10:32;6.53;;;2.33;;
37449;SDS011;23309;52.582;13.406;2022-11-03T14:12:59;4.70;;;2.50;;
37449;SDS011;23309;52.582;13.406;2022-11-03T14:15:25;8.30;;;2.30;;
37449;SDS011;23309;52.582;13.406;2022-11-03T14:17:53;3.50;;;2.37;;
37449;SDS011;23309;52.582;13.406;2022-11-03T14:20:20;11.20;;;2.70;;
37449;SDS011;23309;52.582;13.406;2022-11-03T14:22:46;6.73;;;2.80;;
37449;SDS011;23309;52.582;13.406;2022-11-03T14:25:12;8.50;;;2.33;;
37449;SDS011;23309;52.582;13.406;2022-11-03T14:27:38;15.63;;;2.70;;
37449;SDS011;23309;52.582;13.406;2022-11-03T14:30:05;9.23;;;2.70;;
37449;SDS011;23309;52.582;13.406;2022-11-03T14:32:33;9.30;;;2.80;;
37449;SDS011;23309;52.582;13.406;2022-11-03T14:35:02;7.53;;;2.80;;
37449;SDS011;23309;52.582;13.406;2022-11-03T14:37:29;6.27;;;2.60;;
37449;SDS011;23309;52.582;13.406;2022-11-03T14:39:56;6.57;;;2.20;;
37449;SDS011;23309;52.582;13.406;2022-11-03T14:42:22;9.77;;;3.30;;
37449;SDS011;23309;52.582;13.406;2022-11-03T14:44:48;10.83;;;2.57;;
37449;SDS011;23309;52.582;13.406;2022-11-03T14:47:15;7.90;;;2.87;;
37449;SDS011;23309;52.582;13.406;2022-11-03T14:49:44;5.33;;;2.43;;
37449;SDS011;23309;52.582;13.406;2022-11-03T14:52:13;6.10;;;2.80;;
37449;SDS011;23309;52.582;13.406;2022-11-03T14:54:41;5.67;;;2.70;;
37449;SDS011;23309;52.582;13.406;2022-11-03T14:57:07;5.13;;;2.47;;
37449;SDS011;23309;52.582;13.406;2022-11-03T14:59:34;7.30;;;3.00;;
37449;SDS011;23309;52.582;13.406;2022-11-03T15:02:00;8.50;;;2.60;;
37449;SDS011;23309;52.582;13.406;2022-11-03T15:04:27;6.80;;;2.77;;
37449;SDS011;23309;52.582;13.406;2022-11-03T15:06:53;6.20;;;2.83;;
37449;SDS011;23309;52.582;13.406;2022-11-03T15:09:22;4.70;;;2.47;;